Terminal Aerodrome Forecast
Issued by NWS Houston/Galveston, TX

Home | Current Version | Previous Version | Text Only | Print | Product List | Glossary On
Versions: 1 2 3 4 5 6 7 8 9 10 11 12 13 14 15 16 17 18 19 20 21 22 23 24 25 26
000
FTUS44 KHGX 302325
TAFCLL
TAF
KCLL 302325Z 3100/3124 15007KT P6SM FEW035
     FM310400 16003KT P6SM BKN250
     FM311100 15003KT P6SM SCT015
     FM311500 17006KT P6SM SCT025 BKN250
     FM311800 15007KT P6SM VCSH FEW025 SCT035 SCT150
     FM312300 15007KT P6SM FEW035 SCT140=

USA.gov is the U.S. government's official web portal to all federal, state and local government web resources and services.